Hauptseite
METAR-TAF:

METAR-TAF

Flughäfen :

Flughafen Murcia-San Javier

Murcia, Spanien

Breite: 37-47N, Länge: 000-48W, Höhe: 5 m

Beobachtung

Neuester Wetterbericht von vor 36 Minuten, um 08:30 UTC
Wind 8 kt aus Nord
Temperatur 12°C
Luftfeuchtigkeit 100%
Luftdruck 1021 hPa
Sichtweite: 9000 m
Durchbrochene Bewölkung in der Höhe von 1400 ft

METAR: LELC 240830Z 01008KT 9000 BKN014 12/12 Q1021 NOSIG

Zeit: 10:06 (09:06 UTC)

Prognose

Neuester Wetterbericht von vor 4 Stunden und 6 Minuten, um 05:00 UTC
Gültige Prognose vom 24 um 06 UTC bis 25 um 06 UTC
Wind 8 kt aus Nord/Nordost
Sichtweite 10 km oder mehr
Leicht bewölkt in der Höhe von 2000 ft
Wahrscheinlichkeit 40% :
Zeitweise
vom 24 um 06 UTC bis 24 um 11 UTC
Sichtweite: 3000 m
Durchbrochene Bewölkung in der Höhe von 1200 ft
feuchter Dunst

TAF: LELC 240500Z 2406/2506 02008KT 9999 FEW020 TX17/2413Z TN09/2406Z PROB40 TEMPO 2406/2411 3000 BR BKN012

Wetterbeobachtungen und Prognosen von mehr als 4000 Flughäfen (METAR und TAF Bericht).

Die verfügbaren Stationen werden durch gelbe und rote Markierungen auf der Karte dargestellt.

Führen Sie die Maus auf sie, um den Namen der Station zu sehen.

Darauf klicken, um die Beobachtung von Wetterbeobachtungen und Prognosen zu sehen.

Um die Karte zu ändern : klicken Sie auf den grünen Tasten mit einem schwarzen Kreuz Zum Vergrößern, auf den grünen Button mit einem Gedankenstrich zu verkleinern, oder auf die grünen Pfeile für benachbarte Karten.


METAR-TAF: